Date,TemperatureHighF,TemperatureAvgF,TemperatureLowF,DewpointHighF,DewpointAvgF,DewpointLowF,HumidityHigh,HumidityAvg,HumidityLow,PressureMaxIn,PressureMinIn,WindSpeedMaxMPH,WindSpeedAvgMPH,GustSpeedMaxMPH,PrecipitationSumIn
2013-3-1,46,38,28,34,31,28,98,76,59,29.68,29.52,7,2,0,0.00
2013-3-2,43,37,32,28,26,24,75,66,52,29.71,29.58,6,2,0,0.00
2013-3-3,40,33,27,24,21,19,75,63,51,29.68,29.58,7,2,0,0.00
2013-3-4,42,35,30,26,22,19,70,60,50,29.84,29.68,8,3,0,0.00
2013-3-5,49,36,27,32,27,22,91,70,50,29.91,29.81,5,1,0,0.00
2013-3-6,41,38,29,39,36,27,98,92,84,29.81,29.53,12,6,0,0.23
2013-3-7,49,40,34,36,33,29,98,76,57,29.97,29.77,9,4,0,0.01
2013-3-8,38,35,31,37,33,30,98,94,75,30.08,29.91,5,2,0,0.52
2013-3-9,58,40,27,32,28,25,93,66,30,30.19,30.07,6,2,0,0.06
2013-3-10,59,38,23,41,32,22,98,82,43,30.25,30.16,4,1,0,0.00
2013-3-11,63,46,30,51,42,30,98,88,59,30.20,29.94,4,1,0,0.00
2013-3-12,59,52,42,58,51,38,98,95,83,29.94,29.56,5,2,0,1.01
2013-3-13,52,42,32,38,32,23,94,69,45,29.84,29.69,5,2,0,0.00
2013-3-14,44,36,30,24,19,14,67,50,38,29.89,29.76,7,3,0,0.00
2013-3-15,50,39,25,30,23,14,75,53,43,29.93,29.60,7,2,0,0.00
2013-3-16,42,38,33,35,32,27,98,81,55,29.81,29.60,6,1,0,0.09
2013-3-17,43,34,28,33,27,21,98,76,51,30.18,29.80,5,1,0,0.00
2013-3-18,43,35,27,40,29,18,98,78,56,30.25,29.78,9,2,0,0.83
2013-3-19,51,42,37,44,38,25,98,87,52,29.77,29.55,6,2,0,0.51
2013-3-20,49,39,27,29,24,21,88,56,36,29.83,29.65,7,2,0,0.00
2013-3-21,41,34,28,30,22,13,92,62,43,29.68,29.52,5,2,0,0.00
2013-3-22,44,34,26,26,21,13,73,59,47,29.82,29.68,6,2,0,0.00
2013-3-23,51,37,25,27,23,20,83,58,38,29.84,29.72,7,2,0,0.00
2013-3-24,51,37,23,30,24,18,84,61,38,29.86,29.54,6,1,0,0.00
2013-3-25,37,35,33,35,33,29,98,93,75,29.58,29.29,6,1,0,1.37
2013-3-26,52,42,33,39,35,32,98,78,50,29.78,29.50,5,1,0,0.28
2013-3-27,53,42,28,36,32,28,98,70,42,29.89,29.76,6,2,0,0.00
2013-3-28,51,42,28,34,31,26,93,67,49,30.02,29.87,8,2,0,0.00
2013-3-29,56,45,31,35,32,28,88,61,42,30.07,29.95,8,2,0,0.00
2013-3-30,60,44,27,36,30,26,96,63,31,30.08,29.96,5,1,0,0.00
2013-3-31,61,45,31,50,40,29,98,83,44,30.03,29.58,4,1,0,0.50